KAFW/AFW METAR and TAF weather

Enter ICAO airport designator
Station Type Date Time Source
KAFW METAR 2020/11/28 19:53 UTC NOAA

KAFW 281953Z 08006KT 10SM OVC042 14/06 A3011 RMK AO2 SLP198 T01390061


Station Type Date Time Source
KAFW Decoded METAR 2020/11/28 19:53 UTC NOAA

FORT WORTH ALLIANCE AIRPORT, TX, United States (KAFW) 32-59N 097-19W 233M
Nov 28, 2020 - 02:53 PM EST / 2020.11.28 1953 UTC
Wind: from the E (080 degrees) at 7 MPH (6 KT):0
Visibility: 10 mile(s):0
Sky conditions: overcast
Temperature: 57.0 F (13.9 C)
Dew Point: 43.0 F (6.1 C)
Relative Humidity: 59%
Pressure (altimeter): 30.11 in. Hg (1019 hPa)
ob: KAFW 281953Z 08006KT 10SM OVC042 14/06 A3011 RMK AO2 SLP198 T01390061
cycle: 20

Station Type Date Time Source
KAFW TAF 2020/11/28 18:24 UTC NOAA

TAF KAFW 281723Z 2818/2918 05012KT P6SM VCSH SCT040 OVC060
FM282000 03010KT 6SM -RA OVC025
FM290200 35008KT 5SM RA OVC015
FM290500 35006KT 3SM RA OVC007
FM291200 34006KT P6SM OVC015

Example: see airport list